Pagrindinis puslapis
METAR-TAF:

METAR-TAF

Oro uostai :

Thoothukudi, Indija

platuma: 8-43-27N, ilguma: 78-01-33E, Aukštis: 39 m

Dabartinis oras

Ataskaita buvo paskelbta 2 valandos ir 17 minutes, ne 11:00 UTC
Vėjas 8 kt iš Rytų/Šiaurės Rytų
Temperatūra 32°C
Drėgmė 59%
Slėgis 1009 hPa
Matomumas: 6000 m
Mažai debesys ne aukštis 1800 ft
Mažai debesys ne aukštis 2500 ft, aukštai iškilę kamuoliniai debesys.

METAR: VOTK 151100Z 06008KT 6000 FEW018 FEW025TCU 32/23 Q1009 NOSIG

Laikas: 18:47 (13:17 UTC)


TAF: trūkstamas

Orai ataskaitas ir orų prognozės (METAR, TAF).

turimą stotys yra geltonos ir raudonos taškus žemėlapyje.

Perkelti pele per norėdami pamatyti stoties vardą.

Tada spustelėkite, norėdami matyti oro stebėjimo ir prognozės.

Norėdami pakeisti žemėlapį: spustelėkite ant žalios mygtukų su juodo kryžiaus žemyn,; žalią mygtuką su brūkšneliu, jei norite nutolinti; arba žalių rodyklių gretimoms žemėlapius.


METAR-TAF: